Time;durP1;ratioP1;P1;durP2;ratioP2;P2;SDS_P1;SDS_P2;PMS_P1;PMS_P2;Temp;Humidity;BMP_temperature;BMP_pressure;BME280_temperature;BME280_humidity;BME280_pressure;Samples;Min_cycle;Max_cycle;Signal;HPM_P1;HPM_P2
2023/07/24 00:01:49;;;;;;;3.70;2.97;;;;;;;18.79;100.00;100133.06;5034752;28;20045;-63
2023/07/24 00:04:14;;;;;;;3.63;3.00;;;;;;;18.79;100.00;100140.09;5037888;28;20102;-63
2023/07/24 00:06:40;;;;;;;4.28;2.80;;;;;;;18.77;100.00;100136.69;5037892;28;20053;-63
2023/07/24 00:09:05;;;;;;;4.30;3.10;;;;;;;18.78;100.00;100134.00;5033010;28;20147;-63
2023/07/24 00:11:30;;;;;;;4.40;3.17;;;;;;;18.77;100.00;100132.31;5037709;28;20064;-62
2023/07/24 00:13:56;;;;;;;4.22;2.90;;;;;;;18.78;100.00;100136.63;5033143;28;20036;-62
2023/07/24 00:16:21;;;;;;;4.10;2.97;;;;;;;18.78;100.00;100136.63;5032604;28;20394;-62
2023/07/24 00:18:46;;;;;;;3.40;2.67;;;;;;;18.78;100.00;100127.91;5038043;28;20160;-63
2023/07/24 00:21:13;;;;;;;4.13;2.85;;;;;;;18.77;100.00;100120.97;5039226;28;20719;-62
2023/07/24 00:23:38;;;;;;;5.53;3.17;;;;;;;18.78;100.00;100117.44;5035732;28;20086;-65
2023/07/24 00:26:04;;;;;;;3.15;2.63;;;;;;;18.76;100.00;100116.69;5036792;28;20033;-63
2023/07/24 00:28:29;;;;;;;4.15;3.28;;;;;;;18.73;100.00;100106.38;5033358;28;20116;-62
2023/07/24 00:30:55;;;;;;;4.38;3.30;;;;;;;18.67;100.00;100104.91;5029789;28;20825;-63
2023/07/24 00:33:21;;;;;;;4.50;3.38;;;;;;;18.63;100.00;100110.38;5033199;28;20135;-62
2023/07/24 00:35:47;;;;;;;4.70;3.20;;;;;;;18.59;100.00;100106.22;5033835;28;20095;-62
2023/07/24 00:38:12;;;;;;;4.90;3.30;;;;;;;18.58;100.00;100113.25;5034740;28;20116;-63
2023/07/24 00:40:37;;;;;;;4.43;3.33;;;;;;;18.58;100.00;100115.88;5041670;28;20116;-63
2023/07/24 00:43:03;;;;;;;4.00;3.22;;;;;;;18.58;100.00;100113.25;5038594;28;20417;-63
2023/07/24 00:45:28;;;;;;;4.30;3.40;;;;;;;18.62;100.00;100111.31;5032854;28;20041;-63
2023/07/24 00:47:54;;;;;;;4.25;3.05;;;;;;;18.61;100.00;100109.63;5034081;28;20611;-63
2023/07/24 00:50:20;;;;;;;4.85;3.65;;;;;;;18.58;100.00;100105.41;5036810;28;20120;-62
2023/07/24 00:52:46;;;;;;;5.78;3.42;;;;;;;18.53;100.00;100107.38;5036500;28;20128;-63
2023/07/24 00:55:13;;;;;;;4.32;3.17;;;;;;;18.48;100.00;100104.16;5036234;28;20114;-62
2023/07/24 00:57:38;;;;;;;4.68;3.00;;;;;;;18.44;100.00;100100.84;5032518;28;20083;-62
2023/07/24 01:00:04;;;;;;;4.88;2.50;;;;;;;18.42;100.00;100101.88;5044047;28;20033;-62
2023/07/24 01:02:31;;;;;;;3.78;3.00;;;;;;;18.40;100.00;100098.50;5036472;28;20405;-62
2023/07/24 01:04:56;;;;;;;3.85;2.83;;;;;;;18.39;100.00;100091.56;5039692;28;20086;-63
2023/07/24 01:07:21;;;;;;;4.65;3.00;;;;;;;18.38;100.00;100089.84;5035125;28;20044;-62
2023/07/24 01:09:47;;;;;;;4.32;2.70;;;;;;;18.34;100.00;100081.34;5036455;28;20037;-62
2023/07/24 01:12:25;;;;;;;4.15;3.15;;;;;;;18.32;100.00;100074.47;5028155;28;20036;-62
2023/07/24 01:15:03;;;;;;;8.52;3.08;;;;;;;18.31;100.00;100073.66;5031640;28;20052;-62
2023/07/24 01:17:31;;;;;;;5.25;3.17;;;;;;;18.31;100.00;100075.41;5034092;28;20135;-62
2023/07/24 01:19:59;;;;;;;3.65;3.00;;;;;;;18.31;100.00;100065.78;5037248;28;20033;-62
2023/07/24 01:22:34;;;;;;;4.55;3.45;;;;;;;18.32;100.00;100058.75;5046746;28;20052;-62
2023/07/24 01:25:04;;;;;;;4.55;3.05;;;;;;;18.33;100.00;100063.09;5038700;28;20038;-62
2023/07/24 01:27:29;;;;;;;7.07;3.72;;;;;;;18.33;100.00;100055.22;5037090;28;20056;-63
2023/07/24 01:29:55;;;;;;;5.30;3.35;;;;;;;18.32;100.00;100053.53;5030896;28;20109;-62
2023/07/24 01:32:20;;;;;;;5.35;3.67;;;;;;;18.33;100.00;100040.38;5034129;28;20040;-62
2023/07/24 01:34:46;;;;;;;4.38;3.35;;;;;;;18.36;100.00;100040.22;5036526;28;20716;-63
2023/07/24 01:37:13;;;;;;;5.28;3.55;;;;;;;18.41;100.00;100029.50;5030983;28;20050;-62
2023/07/24 01:39:40;;;;;;;5.97;3.42;;;;;;;18.45;100.00;100036.28;5035095;28;20091;-63
2023/07/24 01:42:06;;;;;;;6.35;3.22;;;;;;;18.48;100.00;100038.75;5040139;28;20037;-63
2023/07/24 01:44:31;;;;;;;4.97;3.75;;;;;;;18.47;100.00;100043.13;5050435;28;20080;-62
2023/07/24 01:46:57;;;;;;;4.55;3.75;;;;;;;18.50;100.00;100035.13;5045204;28;20039;-62
2023/07/24 01:49:22;;;;;;;7.45;3.50;;;;;;;18.50;100.00;100034.25;5043059;28;20119;-62
2023/07/24 01:51:47;;;;;;;7.10;3.55;;;;;;;18.55;100.00;100044.50;5040674;28;20065;-62
2023/07/24 01:54:13;;;;;;;4.65;3.42;;;;;;;18.55;100.00;100049.75;5042684;28;20029;-63
2023/07/24 01:56:39;;;;;;;5.45;3.55;;;;;;;18.57;100.00;100040.88;5035594;28;20041;-63
2023/07/24 01:59:05;;;;;;;6.57;3.58;;;;;;;18.57;100.00;100040.03;5038387;28;20039;-63
2023/07/24 02:01:31;;;;;;;4.65;3.05;;;;;;;18.57;100.00;100035.66;5039024;28;20415;-62
2023/07/24 02:03:56;;;;;;;4.35;3.38;;;;;;;18.59;100.00;100032.94;5040120;28;20036;-62
2023/07/24 02:06:21;;;;;;;6.05;3.75;;;;;;;18.59;100.00;100033.78;5045772;28;20628;-62
2023/07/24 02:08:48;;;;;;;4.55;3.47;;;;;;;18.60;100.00;100035.47;5048904;28;20116;-62
2023/07/24 02:11:17;;;;;;;5.07;3.58;;;;;;;18.62;100.00;100046.72;5040928;28;20023;-65
2023/07/24 02:13:46;;;;;;;5.47;3.47;;;;;;;18.60;100.00;100032.88;5042827;28;20042;-62
2023/07/24 02:16:12;;;;;;;4.72;3.58;;;;;;;18.60;100.00;100032.88;5041188;28;20048;-62
2023/07/24 02:18:40;;;;;;;8.13;3.50;;;;;;;18.60;100.00;100025.00;5040606;28;20049;-63
2023/07/24 02:21:05;;;;;;;5.18;3.15;;;;;;;18.58;100.00;100019.03;5039527;28;20052;-63
2023/07/24 02:23:30;;;;;;;6.68;3.70;;;;;;;18.56;100.00;100027.84;5030098;28;20102;-63
2023/07/24 02:25:56;;;;;;;5.30;3.83;;;;;;;18.52;100.00;100030.63;5033990;28;20044;-63
2023/07/24 02:28:21;;;;;;;6.00;3.67;;;;;;;18.49;100.00;100032.59;5038638;28;20127;-62
2023/07/24 02:30:47;;;;;;;8.65;3.88;;;;;;;18.48;100.00;100033.50;5029425;28;20044;-63
2023/07/24 02:33:12;;;;;;;7.00;3.90;;;;;;;18.48;100.00;100023.91;5027367;28;20107;-63
2023/07/24 02:35:42;;;;;;;5.75;3.60;;;;;;;18.47;100.00;100010.88;5028573;28;20518;-63
2023/07/24 02:38:07;;;;;;;5.85;3.78;;;;;;;18.45;100.00;100004.88;5030479;28;20051;-63
2023/07/24 02:40:33;;;;;;;4.82;3.53;;;;;;;18.41;100.00;99993.72;5027177;28;20505;-63
2023/07/24 02:42:59;;;;;;;6.35;3.72;;;;;;;18.38;100.00;99982.56;5025244;28;20037;-63
2023/07/24 02:45:25;;;;;;;5.10;3.80;;;;;;;18.36;100.00;99987.91;5029509;28;20033;-62
2023/07/24 02:47:50;;;;;;;8.68;4.57;;;;;;;18.34;100.00;99994.13;5027169;28;20049;-63
2023/07/24 02:50:15;;;;;;;6.20;3.72;;;;;;;18.32;100.00;99982.88;5030931;28;20068;-63
2023/07/24 02:52:41;;;;;;;7.43;4.15;;;;;;;18.32;100.00;99980.28;5030219;28;20044;-62
2023/07/24 02:55:06;;;;;;;5.80;4.18;;;;;;;18.32;100.00;99977.66;5038543;28;20055;-63
2023/07/24 02:57:32;;;;;;;5.97;4.03;;;;;;;18.35;100.00;99959.19;5040037;28;20065;-63
2023/07/24 02:59:57;;;;;;;6.55;4.40;;;;;;;18.33;100.00;99964.50;5037915;28;20395;-62
2023/07/24 03:02:22;;;;;;;6.97;3.67;;;;;;;18.34;100.00;99960.13;5033482;28;20041;-62
2023/07/24 03:04:48;;;;;;;6.85;3.88;;;;;;;18.32;100.00;99967.19;5035616;28;20037;-62
2023/07/24 03:07:13;;;;;;;5.88;4.13;;;;;;;18.33;100.00;99958.44;5037179;28;20075;-62
2023/07/24 03:09:38;;;;;;;5.18;3.33;;;;;;;18.33;100.00;99956.66;5034827;28;20132;-65
2023/07/24 03:12:04;;;;;;;5.13;3.90;;;;;;;18.31;100.00;99957.66;5035286;28;20675;-63
2023/07/24 03:14:29;;;;;;;5.35;3.97;;;;;;;18.29;100.00;99962.13;5033888;28;20090;-62
2023/07/24 03:16:55;;;;;;;4.65;3.35;;;;;;;18.24;100.00;99959.75;5038704;28;20451;-62
2023/07/24 03:19:20;;;;;;;4.78;3.83;;;;;;;18.22;100.00;99942.47;5039904;28;20101;-62
2023/07/24 03:21:46;;;;;;;7.07;4.25;;;;;;;18.20;100.00;99939.06;5038417;28;20643;-65
2023/07/24 03:24:11;;;;;;;5.80;4.10;;;;;;;18.17;100.00;99953.16;5037823;28;20035;-63
2023/07/24 03:26:37;;;;;;;5.85;3.85;;;;;;;18.17;100.00;99944.44;5040073;28;20045;-63
2023/07/24 03:29:02;;;;;;;6.15;3.90;;;;;;;18.15;100.00;99947.16;5038803;28;20047;-63
2023/07/24 03:31:27;;;;;;;6.55;4.80;;;;;;;18.18;100.00;99938.31;5043959;28;20486;-63
2023/07/24 03:33:53;;;;;;;5.13;3.97;;;;;;;18.16;100.00;99934.94;5044664;28;20025;-62
2023/07/24 03:36:18;;;;;;;5.60;4.20;;;;;;;18.14;100.00;99928.91;5033839;28;20036;-62
2023/07/24 03:38:43;;;;;;;5.00;3.90;;;;;;;18.14;100.00;99929.75;5035366;28;20049;-62
2023/07/24 03:41:09;;;;;;;5.45;4.10;;;;;;;18.12;100.00;99926.41;5031292;28;20036;-63
2023/07/24 03:43:34;;;;;;;5.45;3.63;;;;;;;18.12;100.00;99947.31;5032174;28;20102;-62
2023/07/24 03:45:59;;;;;;;7.13;4.13;;;;;;;18.12;100.00;99949.09;5037058;28;20072;-62
2023/07/24 03:48:25;;;;;;;8.30;4.20;;;;;;;18.12;100.00;99947.31;5031979;28;20040;-62
2023/07/24 03:50:57;;;;;;;4.88;3.70;;;;;;;18.15;100.00;99949.78;5038151;28;20033;-62
2023/07/24 03:53:23;;;;;;;7.95;4.40;;;;;;;18.17;100.00;99929.59;5038216;28;20124;-62
2023/07/24 03:55:48;;;;;;;5.55;4.05;;;;;;;18.17;100.00;99924.38;5034752;28;20500;-62
2023/07/24 03:58:13;;;;;;;7.35;4.53;;;;;;;18.19;100.00;99930.38;5035545;28;20801;-62
2023/07/24 04:00:39;;;;;;;7.25;4.00;;;;;;;18.19;100.00;99935.63;5035990;28;20044;-63
2023/07/24 04:03:04;;;;;;;6.30;3.92;;;;;;;18.20;100.00;99934.69;5031080;28;20048;-62
2023/07/24 04:05:29;;;;;;;5.93;3.92;;;;;;;18.22;100.00;99926.75;5035478;28;20123;-62
2023/07/24 04:07:55;;;;;;;6.75;3.60;;;;;;;18.24;100.00;99930.97;5036952;28;20041;-62
2023/07/24 04:10:20;;;;;;;7.82;4.47;;;;;;;18.27;100.00;99919.50;5037011;28;20032;-62
2023/07/24 04:12:46;;;;;;;4.95;3.60;;;;;;;18.27;100.00;99925.59;5027614;28;20040;-62
2023/07/24 04:15:11;;;;;;;5.97;3.58;;;;;;;18.28;100.00;99934.28;5039036;28;20050;-62
2023/07/24 04:17:38;;;;;;;5.13;3.88;;;;;;;18.28;100.00;99935.13;5039397;28;20044;-62
2023/07/24 04:20:05;;;;;;;8.15;4.32;;;;;;;18.30;100.00;99932.44;5037161;28;20043;-62
2023/07/24 04:22:30;;;;;;;6.03;4.10;;;;;;;18.32;100.00;99936.66;5037708;28;20668;-62
2023/07/24 04:24:55;;;;;;;8.10;4.20;;;;;;;18.32;100.00;99949.72;5031702;28;20033;-64
2023/07/24 04:27:21;;;;;;;6.93;4.47;;;;;;;18.34;100.00;99944.44;5041727;28;20036;-63
2023/07/24 04:29:46;;;;;;;6.28;4.50;;;;;;;18.36;100.00;99943.41;5032506;28;20715;-63
2023/07/24 04:32:11;;;;;;;6.47;4.72;;;;;;;18.38;100.00;99932.84;5032969;28;20040;-62
2023/07/24 04:34:37;;;;;;;8.05;4.25;;;;;;;18.41;100.00;99941.38;5035992;28;20021;-62
2023/07/24 04:37:02;;;;;;;6.57;4.10;;;;;;;18.44;100.00;99943.84;5042884;28;20033;-63
2023/07/24 04:39:28;;;;;;;7.28;4.18;;;;;;;18.44;100.00;99953.47;5033104;28;20044;-62
2023/07/24 04:41:53;;;;;;;6.30;4.10;;;;;;;18.45;100.00;99953.41;5034217;28;21282;-62
2023/07/24 04:44:18;;;;;;;7.15;4.68;;;;;;;18.46;100.00;99952.44;5030486;28;20048;-62
2023/07/24 04:46:44;;;;;;;7.05;4.10;;;;;;;18.49;100.00;99946.22;5036112;28;20036;-63
2023/07/24 04:49:09;;;;;;;8.52;4.43;;;;;;;18.52;100.00;99948.69;5034491;28;20828;-62
2023/07/24 04:51:35;;;;;;;7.65;5.13;;;;;;;18.56;100.00;99951.97;5034516;28;20041;-62
2023/07/24 04:54:00;;;;;;;9.27;4.93;;;;;;;18.60;100.00;99980.53;5031760;28;20048;-62
2023/07/24 04:56:25;;;;;;;5.85;4.30;;;;;;;18.59;100.00;99975.34;5038254;28;20060;-63
2023/07/24 04:58:51;;;;;;;7.13;4.05;;;;;;;18.60;100.00;99964.81;5030223;28;20090;-62
2023/07/24 05:01:16;;;;;;;5.53;4.03;;;;;;;18.63;100.00;99959.41;5028803;28;20132;-63
2023/07/24 05:03:41;;;;;;;5.47;3.80;;;;;;;18.68;100.00;99973.09;5032746;28;20096;-62
2023/07/24 05:06:07;;;;;;;7.28;3.95;;;;;;;18.70;100.00;99960.75;5034757;28;20047;-62
2023/07/24 05:08:32;;;;;;;6.05;4.15;;;;;;;18.79;100.00;99956.81;5036686;28;20098;-62
2023/07/24 05:10:58;;;;;;;5.63;4.03;;;;;;;18.83;100.00;99958.31;5033599;28;20047;-62
2023/07/24 05:13:24;;;;;;;6.70;4.75;;;;;;;18.85;99.24;99959.13;5028741;28;20060;-63
2023/07/24 05:15:50;;;;;;;8.63;4.20;;;;;;;18.89;98.05;99961.47;5037693;28;20045;-62
2023/07/24 05:18:15;;;;;;;7.45;4.30;;;;;;;18.85;96.42;99964.38;5041917;28;20043;-63
2023/07/24 05:20:48;;;;;;;5.75;4.00;;;;;;;18.98;95.54;99968.84;5036273;28;20033;-63
2023/07/24 05:23:14;;;;;;;6.07;3.92;;;;;;;19.09;94.98;99959.53;5032507;28;20041;-62
2023/07/24 05:25:39;;;;;;;7.85;4.55;;;;;;;19.18;94.11;99961.63;5035195;28;20058;-63
2023/07/24 05:28:05;;;;;;;8.15;4.82;;;;;;;19.27;92.58;99969.81;5034000;28;20645;-62
2023/07/24 05:30:30;;;;;;;5.68;4.10;;;;;;;19.40;93.36;99975.22;5033178;28;20419;-63
2023/07/24 05:32:55;;;;;;;8.07;4.00;;;;;;;19.58;92.18;99979.41;5031239;28;20158;-63
2023/07/24 05:35:21;;;;;;;6.72;4.60;;;;;;;19.79;89.87;99982.59;5034594;28;20124;-63
2023/07/24 05:37:46;;;;;;;6.40;4.18;;;;;;;20.00;87.92;99994.44;5034516;28;20041;-63
2023/07/24 05:40:12;;;;;;;8.07;4.57;;;;;;;20.18;86.37;99988.94;5035789;28;20033;-63
2023/07/24 05:42:41;;;;;;;6.35;4.47;;;;;;;20.44;85.91;99987.38;5032206;28;20064;-63
2023/07/24 05:45:08;;;;;;;6.50;3.90;;;;;;;20.70;85.93;99986.63;5030226;28;20142;-63
2023/07/24 05:47:34;;;;;;;7.07;4.53;;;;;;;20.86;82.91;99983.06;5033175;28;20049;-63
2023/07/24 05:49:59;;;;;;;8.05;4.72;;;;;;;20.90;83.29;99995.88;5031072;28;20044;-63
2023/07/24 05:52:24;;;;;;;7.07;4.05;;;;;;;20.90;84.57;100001.13;5035596;28;20041;-63
2023/07/24 05:54:50;;;;;;;7.05;4.20;;;;;;;20.87;84.16;100003.97;5021499;28;20044;-62
2023/07/24 05:57:15;;;;;;;6.20;3.90;;;;;;;20.83;83.07;99994.59;5033457;28;20600;-63
2023/07/24 05:59:40;;;;;;;12.00;4.15;;;;;;;20.83;82.68;99993.75;5030887;28;20071;-63
2023/07/24 06:02:07;;;;;;;6.38;3.85;;;;;;;20.81;81.75;99993.00;5034955;28;20104;-63
2023/07/24 06:04:32;;;;;;;5.75;3.92;;;;;;;20.80;80.53;99989.53;5030301;28;20032;-63
2023/07/24 06:06:58;;;;;;;5.07;3.58;;;;;;;20.88;81.11;99992.53;5036070;28;20040;-64
2023/07/24 06:09:23;;;;;;;5.72;3.97;;;;;;;20.93;81.17;99998.31;5030257;28;20030;-64
2023/07/24 06:11:49;;;;;;;6.63;4.18;;;;;;;20.92;79.50;99988.78;5033349;28;20355;-64
2023/07/24 06:14:14;;;;;;;7.20;4.25;;;;;;;20.94;79.20;99983.41;5032087;28;20659;-64
2023/07/24 06:16:39;;;;;;;8.07;4.50;;;;;;;21.04;79.08;99989.78;5030537;28;20033;-64
2023/07/24 06:19:05;;;;;;;10.00;3.83;;;;;;;21.15;78.07;99984.66;5035750;28;20123;-64
2023/07/24 06:21:30;;;;;;;6.05;3.88;;;;;;;21.26;76.93;99969.88;5039852;28;20118;-65
2023/07/24 06:23:56;;;;;;;6.65;3.92;;;;;;;21.40;76.25;99969.00;5034890;28;20041;-64
2023/07/24 06:26:22;;;;;;;8.60;4.40;;;;;;;21.45;76.65;99982.69;5032974;28;20073;-64
2023/07/24 06:28:47;;;;;;;6.10;4.13;;;;;;;21.45;75.98;99982.69;5033006;28;20539;-64
2023/07/24 06:31:13;;;;;;;7.00;4.20;;;;;;;21.42;75.59;99982.03;5034142;28;20100;-63
2023/07/24 06:33:38;;;;;;;6.22;4.63;;;;;;;21.34;76.18;99969.41;5040329;28;20457;-64
2023/07/24 06:36:04;;;;;;;6.60;4.55;;;;;;;21.28;76.61;99982.94;5038693;28;20191;-64
2023/07/24 06:38:29;;;;;;;8.07;4.30;;;;;;;21.21;77.09;99976.41;5037394;28;20076;-63
2023/07/24 06:40:54;;;;;;;7.80;4.10;;;;;;;21.18;77.49;99974.81;5034698;28;20037;-67
2023/07/24 06:43:20;;;;;;;5.28;4.03;;;;;;;21.13;76.96;99983.94;5028466;28;20048;-63
2023/07/24 06:45:45;;;;;;;6.05;3.58;;;;;;;21.07;76.19;99976.44;5043286;28;20041;-61
2023/07/24 06:48:10;;;;;;;5.25;3.58;;;;;;;21.02;77.16;99999.53;5045118;28;20687;-62
2023/07/24 06:50:36;;;;;;;7.30;3.70;;;;;;;21.00;77.50;99990.91;5040169;28;20132;-64
2023/07/24 06:53:01;;;;;;;9.10;3.75;;;;;;;21.06;76.66;99994.00;5042656;28;20075;-63
2023/07/24 06:55:26;;;;;;;5.30;3.83;;;;;;;21.18;76.57;99989.72;5035507;28;20029;-61
2023/07/24 06:57:52;;;;;;;6.18;3.90;;;;;;;21.26;76.61;99979.56;5030402;28;20132;-61
2023/07/24 07:00:17;;;;;;;7.90;3.90;;;;;;;21.38;75.45;99972.66;5039513;28;20083;-61
2023/07/24 07:02:43;;;;;;;5.35;3.75;;;;;;;21.56;75.52;99963.59;5042325;28;20151;-61
2023/07/24 07:05:09;;;;;;;4.85;3.65;;;;;;;21.70;74.24;99953.03;5037608;28;20082;-61
2023/07/24 07:07:34;;;;;;;5.00;3.53;;;;;;;21.82;72.75;99954.00;5039388;28;20056;-62
2023/07/24 07:09:59;;;;;;;8.52;2.97;;;;;;;21.93;72.63;99948.84;5035581;28;20562;-61
2023/07/24 07:12:25;;;;;;;7.00;3.47;;;;;;;21.97;70.96;99934.53;5034916;28;20391;-60
2023/07/24 07:14:50;;;;;;;4.65;3.58;;;;;;;22.14;71.12;99942.97;5033278;28;20148;-61
2023/07/24 07:17:16;;;;;;;5.53;4.00;;;;;;;22.27;70.72;99937.66;5032808;28;20147;-61
2023/07/24 07:19:41;;;;;;;4.63;2.83;;;;;;;22.32;70.46;99944.28;5035687;28;20055;-61
2023/07/24 07:22:06;;;;;;;7.20;3.83;;;;;;;22.28;69.75;99937.56;5039091;28;20402;-63
2023/07/24 07:24:32;;;;;;;6.15;3.80;;;;;;;22.34;69.85;99945.06;5040372;28;20403;-63
2023/07/24 07:26:57;;;;;;;6.60;3.83;;;;;;;22.17;67.95;99924.31;5031960;28;20036;-63
2023/07/24 07:29:22;;;;;;;5.72;3.05;;;;;;;22.16;69.14;99943.69;5024613;28;20043;-63
2023/07/24 07:31:48;;;;;;;9.15;3.53;;;;;;;22.14;69.35;99936.84;5035075;28;20810;-63
2023/07/24 07:34:14;;;;;;;6.97;3.50;;;;;;;22.11;69.12;99916.00;5034897;28;20068;-63
2023/07/24 07:36:39;;;;;;;4.65;3.05;;;;;;;22.03;69.08;99920.94;5031724;28;21010;-63
2023/07/24 07:39:05;;;;;;;4.78;3.10;;;;;;;21.94;68.81;99916.31;5035534;28;20029;-63
2023/07/24 07:41:30;;;;;;;6.60;3.00;;;;;;;21.87;68.76;99918.53;5033373;28;20044;-63
2023/07/24 07:43:55;;;;;;;6.25;3.33;;;;;;;21.85;68.84;99922.22;5030845;28;20056;-63
2023/07/24 07:46:21;;;;;;;6.25;3.13;;;;;;;21.85;68.55;99909.06;5036586;28;20047;-63
2023/07/24 07:48:47;;;;;;;3.97;3.00;;;;;;;21.88;68.98;99912.28;5043413;28;20028;-62
2023/07/24 07:51:12;;;;;;;6.55;3.65;;;;;;;21.86;68.70;99903.69;5030421;28;20064;-63
2023/07/24 07:53:38;;;;;;;6.57;3.75;;;;;;;21.82;68.92;99907.44;5036467;28;20040;-63
2023/07/24 07:56:04;;;;;;;5.43;3.65;;;;;;;21.82;68.96;99901.38;5033651;28;20414;-63
2023/07/24 07:58:29;;;;;;;5.07;3.03;;;;;;;21.89;68.72;99908.72;5033842;28;20036;-63
2023/07/24 08:00:55;;;;;;;4.97;3.42;;;;;;;22.17;67.89;99899.78;5034630;28;20037;-63
2023/07/24 08:03:21;;;;;;;5.97;3.88;;;;;;;22.50;67.83;99899.25;5031174;28;20654;-63
2023/07/24 08:05:46;;;;;;;5.30;2.83;;;;;;;22.76;67.27;99892.94;5032730;28;20069;-63
2023/07/24 08:08:12;;;;;;;3.97;3.20;;;;;;;22.98;66.34;99879.06;5041896;28;20643;-63
2023/07/24 08:10:38;;;;;;;5.55;3.40;;;;;;;23.25;65.38;99869.94;5033779;28;20091;-63
2023/07/24 08:13:03;;;;;;;5.30;3.38;;;;;;;23.36;65.02;99864.72;5031541;28;20044;-63
2023/07/24 08:15:29;;;;;;;4.82;3.05;;;;;;;23.39;65.05;99879.50;5037508;28;20041;-63
2023/07/24 08:17:54;;;;;;;4.22;3.28;;;;;;;23.33;65.24;99885.22;5032907;28;20051;-64
2023/07/24 08:20:19;;;;;;;4.35;3.08;;;;;;;23.26;64.90;99897.16;5035700;28;20525;-63
2023/07/24 08:22:45;;;;;;;5.53;3.78;;;;;;;23.32;65.00;99896.72;5032214;28;20760;-63
2023/07/24 08:25:10;;;;;;;4.95;3.17;;;;;;;23.42;64.83;99888.00;5033150;28;20538;-63
2023/07/24 08:27:35;;;;;;;5.38;3.70;;;;;;;23.49;64.90;99882.25;5037851;28;20045;-63
2023/07/24 08:30:01;;;;;;;4.90;3.22;;;;;;;23.60;64.73;99875.19;5037448;28;20780;-63
2023/07/24 08:32:26;;;;;;;6.60;3.55;;;;;;;23.61;63.28;99852.31;5033444;28;20041;-63
2023/07/24 08:34:51;;;;;;;5.22;3.25;;;;;;;23.47;62.56;99836.69;5035471;28;20029;-61
2023/07/24 08:37:17;;;;;;;4.90;3.30;;;;;;;23.63;62.45;99832.75;5037232;28;20605;-61
2023/07/24 08:39:42;;;;;;;4.22;3.30;;;;;;;23.82;62.67;99838.31;5034180;28;20473;-61
2023/07/24 08:42:09;;;;;;;5.13;3.20;;;;;;;23.95;61.04;99804.75;5035537;28;20108;-61
2023/07/24 08:44:36;;;;;;;4.95;3.58;;;;;;;24.03;61.76;99827.91;5031201;28;20049;-61
2023/07/24 08:47:02;;;;;;;6.05;3.03;;;;;;;24.22;60.61;99808.81;5037636;28;20031;-61
2023/07/24 08:49:29;;;;;;;5.13;3.28;;;;;;;24.49;59.91;99798.69;5039563;28;20029;-61
2023/07/24 08:51:55;;;;;;;4.43;3.00;;;;;;;24.73;59.95;99799.34;5036247;28;20040;-61
2023/07/24 08:54:22;;;;;;;5.05;3.30;;;;;;;24.95;58.24;99771.97;5033392;28;20064;-62
2023/07/24 08:56:50;;;;;;;4.65;3.25;;;;;;;25.06;57.72;99785.13;5032019;28;20063;-62
2023/07/24 08:59:15;;;;;;;5.25;3.28;;;;;;;25.29;56.71;99770.84;5035830;28;20127;-61
2023/07/24 09:01:41;;;;;;;4.45;2.63;;;;;;;25.13;56.47;99773.09;5038048;28;20035;-61
2023/07/24 09:04:06;;;;;;;4.18;2.75;;;;;;;24.96;55.46;99766.56;5043334;28;20033;-61
2023/07/24 09:06:32;;;;;;;3.58;2.70;;;;;;;24.67;55.82;99773.38;5034024;28;20059;-61
2023/07/24 09:08:57;;;;;;;2.88;2.42;;;;;;;24.37;56.60;99789.09;5038121;28;20457;-61
2023/07/24 09:11:22;;;;;;;2.63;2.33;;;;;;;24.15;57.73;99802.31;5037297;28;20079;-61
2023/07/24 09:13:49;;;;;;;4.00;2.72;;;;;;;23.99;58.65;99815.91;5029587;28;20108;-61
2023/07/24 09:16:26;;;;;;;4.65;2.67;;;;;;;23.83;59.31;99818.88;5032835;28;20433;-61
2023/07/24 09:18:52;;;;;;;3.83;2.50;;;;;;;23.75;58.40;99794.88;5034167;28;20033;-62
2023/07/24 09:21:31;;;;;;;4.05;2.65;;;;;;;23.72;57.05;99773.19;5036730;28;20183;-61
2023/07/24 09:24:08;;;;;;;3.65;2.30;;;;;;;23.62;57.76;99780.97;5036179;28;20122;-61
2023/07/24 09:26:33;;;;;;;3.92;2.60;;;;;;;23.60;58.97;99796.06;5036442;28;20154;-61
2023/07/24 09:28:59;;;;;;;3.33;2.45;;;;;;;23.57;58.49;99784.91;5034186;28;20613;-61
2023/07/24 09:31:35;;;;;;;6.72;3.05;;;;;;;23.57;58.18;99772.53;5038667;28;20041;-60
2023/07/24 09:34:00;;;;;;;4.35;2.58;;;;;;;23.49;58.23;99767.03;5037679;28;20073;-61
2023/07/24 09:36:37;;;;;;;3.10;2.22;;;;;;;23.47;58.55;99773.38;5030936;28;20125;-61
2023/07/24 09:39:06;;;;;;;3.55;2.53;;;;;;;23.44;59.25;99779.75;5032287;28;20033;-61
2023/07/24 09:41:31;;;;;;;3.22;2.20;;;;;;;23.36;59.99;99779.50;5034140;28;20044;-62
2023/07/24 09:43:59;;;;;;;3.25;2.30;;;;;;;23.23;60.59;99790.13;5030293;28;20383;-61
2023/07/24 09:46:26;;;;;;;4.50;2.67;;;;;;;23.23;61.19;99795.41;5034703;28;20049;-61
2023/07/24 09:48:51;;;;;;;4.13;2.70;;;;;;;23.19;61.65;99796.59;5029191;28;20419;-62
2023/07/24 09:51:17;;;;;;;4.35;2.50;;;;;;;23.19;62.05;99801.84;5039361;28;20040;-61
2023/07/24 09:53:48;;;;;;;4.03;2.47;;;;;;;23.34;61.44;99781.38;5034531;28;20041;-61
2023/07/24 09:56:15;;;;;;;4.70;2.85;;;;;;;23.57;60.44;99758.53;5029895;28;20033;-62
2023/07/24 09:58:40;;;;;;;4.30;2.10;;;;;;;23.80;60.32;99754.94;5031359;28;20013;-61
2023/07/24 10:01:07;;;;;;;3.95;2.53;;;;;;;24.01;59.09;99734.78;5031256;28;20537;-61
2023/07/24 10:03:49;;;;;;;7.78;2.88;;;;;;;24.14;58.28;99718.78;5036025;28;20503;-61
2023/07/24 10:06:15;;;;;;;3.25;2.40;;;;;;;24.18;57.63;99705.22;5036767;28;20061;-62
2023/07/24 10:08:42;;;;;;;4.57;2.42;;;;;;;24.14;57.97;99711.72;5037773;28;20100;-62
2023/07/24 10:11:14;;;;;;;4.55;2.72;;;;;;;24.17;58.04;99719.38;5033864;28;20108;-62
2023/07/24 10:13:41;;;;;;;4.53;2.63;;;;;;;24.25;58.15;99716.13;5036785;28;20013;-62
2023/07/24 10:16:06;;;;;;;3.03;2.25;;;;;;;24.49;57.79;99700.94;5039078;28;20064;-62
2023/07/24 10:18:34;;;;;;;3.63;2.50;;;;;;;24.68;56.11;99681.72;5035991;28;20214;-62
2023/07/24 10:21:05;;;;;;;3.83;2.95;;;;;;;25.05;56.66;99688.28;5035415;28;20040;-62
2023/07/24 10:23:33;;;;;;;2.95;2.17;;;;;;;25.34;55.21;99659.31;5035548;28;20049;-62
2023/07/24 10:26:06;;;;;;;2.88;2.10;;;;;;;25.60;54.45;99650.81;5035819;28;20043;-62
2023/07/24 10:28:40;;;;;;;2.92;2.20;;;;;;;26.12;54.51;99649.66;5032151;28;20033;-62
2023/07/24 10:31:23;;;;;;;3.78;2.25;;;;;;;26.25;53.09;99617.63;5030385;28;20075;-62
2023/07/24 10:33:49;;;;;;;2.72;2.10;;;;;;;26.38;52.68;99617.34;5033599;28;20032;-61
2023/07/24 10:36:19;;;;;;;3.08;2.30;;;;;;;26.13;51.37;99603.69;5036702;28;20620;-62
2023/07/24 10:38:45;;;;;;;3.17;2.20;;;;;;;26.01;51.67;99602.09;5035017;28;20043;-61
2023/07/24 10:41:11;;;;;;;4.28;2.45;;;;;;;26.02;51.49;99605.59;5034261;28;20037;-61
2023/07/24 10:43:59;;;;;;;5.07;3.00;;;;;;;25.67;50.71;99592.03;5035345;28;20029;-62
2023/07/24 10:46:37;;;;;;;4.78;2.85;;;;;;;25.75;51.75;99613.34;5036260;28;20045;-61
2023/07/24 10:49:03;;;;;;;3.97;2.50;;;;;;;25.61;52.87;99638.41;5038803;28;20472;-61
2023/07/24 10:51:37;;;;;;;3.65;2.80;;;;;;;25.36;53.21;99642.34;5039496;28;20049;-62
2023/07/24 10:54:04;;;;;;;3.33;2.33;;;;;;;25.12;54.42;99670.91;5040774;28;20111;-62
2023/07/24 10:56:29;;;;;;;4.47;2.80;;;;;;;25.03;54.55;99671.69;5037532;28;20044;-62
2023/07/24 10:58:55;;;;;;;3.53;2.45;;;;;;;24.86;53.71;99649.34;5037928;28;20025;-62
2023/07/24 11:01:20;;;;;;;4.07;2.60;;;;;;;25.05;53.42;99632.75;5038075;28;20045;-62
2023/07/24 11:03:46;;;;;;;4.38;2.83;;;;;;;25.83;52.91;99624.13;5033564;28;20045;-61
2023/07/24 11:06:13;;;;;;;3.65;2.72;;;;;;;26.12;51.36;99599.34;5034224;28;20147;-62
2023/07/24 11:08:40;;;;;;;4.13;2.47;;;;;;;26.78;50.83;99572.06;5034595;28;20041;-61
2023/07/24 11:11:05;;;;;;;4.30;2.72;;;;;;;26.82;50.24;99552.25;5034794;28;20038;-62
2023/07/24 11:13:31;;;;;;;4.72;2.63;;;;;;;26.73;49.14;99530.06;5035563;28;20697;-61
2023/07/24 11:16:04;;;;;;;3.47;2.65;;;;;;;26.68;49.31;99540.28;5035315;28;20034;-61
2023/07/24 11:18:30;;;;;;;4.10;2.65;;;;;;;26.79;48.44;99523.38;5035333;28;20055;-62
2023/07/24 11:20:56;;;;;;;4.68;2.50;;;;;;;26.61;49.02;99528.56;5038524;28;20801;-61
2023/07/24 11:23:22;;;;;;;3.50;2.20;;;;;;;26.21;49.71;99543.88;5038501;28;20841;-61